FRA weather

Frankfurt am Main Airport
Frankfurt am Main, Hesse, Germany

Public forecast

Using degrees Celsius for public forecast. Weather courtesy of forecast.io.

Current aviation weather report (METAR) for Frankfurt am Main Airport

Retrieved 2019/10/23 01:20 UTC (26 minutes ago):

EDDF 230120Z 06004KT CAVOK 11/09 Q1020 NOSIG

Aviation forecast (TAF) for Frankfurt am Main Airport

Retrieved 2019-10-23 00:27 UTC (1 hour ago):

TAF EDDF 222300Z 2300/2406 05005KT 9999 FEW030 TEMPO 2300/2310 3000 BR BKN008 PROB40 TEMPO 2310/2314 BKN014 PROB40 TEMPO 2400/2406 1400 BCFG BKN004